Terminal Aerodrome Forecast
Issued by NWS

Current Version | Previous Version | Text Only | Print | Product List | Glossary On
Versions: 1 2 3 4 5 6 7 8 9 10 11 12 13 14 15 16 17 18 19 20 21 22 23 24
000 FTUS41 KGYX 031122 TAFLEB TAF KLEB 031122Z 0312/0412 VRB03KT P6SM BKN200 FM031400 20010G18KT P6SM BKN200 PROB30 0322/0402 5SM -TSRA BR OVC040CB FM040200 19006KT 6SM -SHRA BR BKN040 FM040700 VRB03KT 2SM BR OVC002=

USA.gov is the U.S. government's official web portal to all federal, state and local government web resources and services.